createdAt,value
2023-01-29T00:01:06.571Z,100435.94
2023-01-29T00:03:35.083Z,100437.63
2023-01-29T00:06:06.524Z,100438.19
2023-01-29T00:08:39.058Z,100442.22
2023-01-29T00:11:09.167Z,100423.31
2023-01-29T00:13:40.164Z,100422.25
2023-01-29T00:16:08.805Z,100418.72
2023-01-29T00:18:42.433Z,100417.84
2023-01-29T00:21:11.774Z,100409.00
2023-01-29T00:23:44.019Z,100398.81
2023-01-29T00:26:12.812Z,100405.13
2023-01-29T00:28:48.836Z,100399.19
2023-01-29T00:31:19.452Z,100414.97
2023-01-29T00:33:48.241Z,100405.50
2023-01-29T00:36:18.050Z,100413.59
2023-01-29T00:38:54.726Z,100406.44
2023-01-29T00:41:44.488Z,100406.81
2023-01-29T00:44:30.473Z,100394.16
2023-01-29T00:46:58.864Z,100395.84
2023-01-29T00:49:27.574Z,100390.78
2023-01-29T00:52:09.753Z,100385.00
2023-01-29T00:54:39.628Z,100375.69
2023-01-29T00:57:07.892Z,100387.47
2023-01-29T00:59:36.239Z,100387.88
2023-01-29T01:02:23.164Z,100386.16
2023-01-29T01:04:53.310Z,100382.31
2023-01-29T01:07:21.704Z,100375.38
2023-01-29T01:10:08.925Z,100373.47
2023-01-29T01:12:37.163Z,100382.75
2023-01-29T01:15:06.049Z,100375.16
2023-01-29T01:17:34.791Z,100374.25
2023-01-29T01:20:03.656Z,100372.81
2023-01-29T01:22:32.591Z,100371.34
2023-01-29T01:25:02.375Z,100371.19
2023-01-29T01:27:32.290Z,100372.69
2023-01-29T01:30:00.628Z,100373.75
2023-01-29T01:32:30.054Z,100368.09
2023-01-29T01:34:58.560Z,100362.56
2023-01-29T01:37:29.154Z,100373.56
2023-01-29T01:39:58.038Z,100372.28
2023-01-29T01:42:31.397Z,100368.97
2023-01-29T01:45:01.391Z,100361.38
2023-01-29T01:47:32.774Z,100365.81
2023-01-29T01:50:07.851Z,100360.94
2023-01-29T01:52:38.070Z,100363.06
2023-01-29T01:55:07.480Z,100352.94
2023-01-29T01:57:37.815Z,100353.19
2023-01-29T02:00:11.496Z,100354.69
2023-01-29T02:02:58.231Z,100350.44
2023-01-29T02:05:44.298Z,100348.13
2023-01-29T02:08:30.331Z,100344.13
2023-01-29T02:10:59.735Z,100337.81
2023-01-29T02:13:29.678Z,100338.84
2023-01-29T02:15:58.117Z,100331.53
2023-01-29T02:18:26.687Z,100331.75
2023-01-29T02:21:07.547Z,100331.88
2023-01-29T02:24:08.902Z,100326.97
2023-01-29T02:26:44.891Z,100326.28
2023-01-29T02:29:27.328Z,100317.00
2023-01-29T02:32:15.258Z,100317.28
2023-01-29T02:35:11.439Z,100321.75
2023-01-29T02:37:43.887Z,100315.44
2023-01-29T02:40:17.449Z,100317.75
2023-01-29T02:42:50.938Z,100316.25
2023-01-29T02:45:20.615Z,100308.34
2023-01-29T02:47:51.307Z,100307.28
2023-01-29T02:50:22.601Z,100299.06
2023-01-29T02:52:57.039Z,100306.28
2023-01-29T02:55:32.012Z,100307.09
2023-01-29T02:58:05.379Z,100295.03
2023-01-29T03:00:36.259Z,100291.06
2023-01-29T03:03:13.924Z,100287.09
2023-01-29T03:05:53.527Z,100290.19
2023-01-29T03:08:29.787Z,100277.56
2023-01-29T03:11:00.387Z,100286.81
2023-01-29T03:13:36.667Z,100273.38
2023-01-29T03:16:09.056Z,100264.91
2023-01-29T03:18:46.118Z,100279.25
2023-01-29T03:21:34.870Z,100271.19
2023-01-29T03:24:20.593Z,100270.63
2023-01-29T03:27:06.486Z,100265.81
2023-01-29T03:29:53.976Z,100262.84
2023-01-29T03:32:26.733Z,100256.22
2023-01-29T03:35:00.054Z,100259.72
2023-01-29T03:37:34.618Z,100255.66
2023-01-29T03:40:03.589Z,100257.38
2023-01-29T03:42:45.674Z,100251.06
2023-01-29T03:45:17.717Z,100246.41
2023-01-29T03:47:50.549Z,100239.31
2023-01-29T03:50:32.655Z,100236.41
2023-01-29T03:53:04.243Z,100211.56
2023-01-29T03:55:36.849Z,100224.72
2023-01-29T03:58:09.551Z,100224.72
2023-01-29T04:00:41.796Z,100222.41
2023-01-29T04:03:14.607Z,100221.00
2023-01-29T04:05:49.078Z,100224.78
2023-01-29T04:08:22.213Z,100228.09
2023-01-29T04:10:51.401Z,100225.16
2023-01-29T04:13:21.416Z,100214.63
2023-01-29T04:15:53.506Z,100200.34
2023-01-29T04:18:25.642Z,100204.53
2023-01-29T04:20:54.059Z,100203.34
2023-01-29T04:23:24.296Z,100200.75
2023-01-29T04:25:58.063Z,100199.13
2023-01-29T04:28:35.232Z,100198.03
2023-01-29T04:31:07.774Z,100197.44
2023-01-29T04:33:43.213Z,100190.28
2023-01-29T04:36:19.959Z,100198.66
2023-01-29T04:38:55.449Z,100200.28
2023-01-29T04:41:32.218Z,100191.06
2023-01-29T04:44:07.336Z,100191.97
2023-01-29T04:46:39.059Z,100170.19
2023-01-29T04:49:16.018Z,100173.53
2023-01-29T04:51:51.011Z,100179.78
2023-01-29T04:54:25.822Z,100183.41
2023-01-29T04:56:57.772Z,100184.63
2023-01-29T04:59:29.282Z,100175.44
2023-01-29T05:02:02.930Z,100176.69
2023-01-29T05:04:34.086Z,100185.59
2023-01-29T05:07:04.787Z,100181.00
2023-01-29T05:09:34.599Z,100186.50
2023-01-29T05:12:03.910Z,100185.25
2023-01-29T05:14:32.754Z,100184.03
2023-01-29T05:17:04.058Z,100175.09
2023-01-29T05:19:33.855Z,100177.53
2023-01-29T05:22:03.927Z,100175.59
2023-01-29T05:24:32.343Z,100174.38
2023-01-29T05:27:18.374Z,100162.41
2023-01-29T05:29:47.472Z,100167.94
2023-01-29T05:32:16.638Z,100175.72
2023-01-29T05:34:46.969Z,100163.72
2023-01-29T05:37:17.564Z,100172.53
2023-01-29T05:39:49.918Z,100165.81
2023-01-29T05:42:20.114Z,100176.38
2023-01-29T05:44:50.456Z,100182.06
2023-01-29T05:47:20.725Z,100174.69
2023-01-29T05:49:50.625Z,100179.13
2023-01-29T05:52:18.875Z,100179.50
2023-01-29T05:54:47.687Z,100174.53
2023-01-29T05:57:16.664Z,100177.66
2023-01-29T05:59:44.880Z,100173.84
2023-01-29T06:02:13.248Z,100175.53
2023-01-29T06:04:44.475Z,100177.22
2023-01-29T06:07:15.948Z,100169.56
2023-01-29T06:09:44.276Z,100168.56
2023-01-29T06:12:14.439Z,100172.13
2023-01-29T06:14:46.468Z,100171.56
2023-01-29T06:17:15.238Z,100179.72
2023-01-29T06:19:43.626Z,100180.94
2023-01-29T06:22:12.000Z,100179.34
2023-01-29T06:24:41.663Z,100182.69
2023-01-29T06:27:10.031Z,100173.84
2023-01-29T06:29:38.457Z,100177.66
2023-01-29T06:32:07.092Z,100169.28
2023-01-29T06:34:35.418Z,100166.56
2023-01-29T06:37:03.797Z,100154.16
2023-01-29T06:39:36.951Z,100163.66
2023-01-29T06:42:10.249Z,100161.97
2023-01-29T06:44:39.498Z,100161.63
2023-01-29T06:47:09.750Z,100166.38
2023-01-29T06:49:39.603Z,100158.19
2023-01-29T06:52:07.850Z,100164.41
2023-01-29T06:54:36.225Z,100160.81
2023-01-29T06:57:04.680Z,100160.91
2023-01-29T06:59:34.845Z,100151.19
2023-01-29T07:02:03.344Z,100147.06
2023-01-29T07:04:31.863Z,100150.56
2023-01-29T07:07:00.907Z,100146.19
2023-01-29T07:09:29.361Z,100141.13
2023-01-29T07:11:57.735Z,100137.72
2023-01-29T07:14:26.017Z,100139.75
2023-01-29T07:16:56.418Z,100146.50
2023-01-29T07:19:27.662Z,100137.16
2023-01-29T07:21:58.372Z,100138.44
2023-01-29T07:24:26.737Z,100135.34
2023-01-29T07:26:57.569Z,100138.53
2023-01-29T07:29:26.040Z,100135.94
2023-01-29T07:31:57.722Z,100137.41
2023-01-29T07:34:28.173Z,100129.19
2023-01-29T07:37:01.163Z,100132.53
2023-01-29T07:39:31.370Z,100120.34
2023-01-29T07:41:59.720Z,100122.38
2023-01-29T07:44:28.182Z,100130.72
2023-01-29T07:47:01.568Z,100130.66
2023-01-29T07:49:29.569Z,100115.53
2023-01-29T07:51:57.884Z,100118.88
2023-01-29T07:54:26.358Z,100119.03
2023-01-29T07:56:54.613Z,100117.66
2023-01-29T07:59:22.943Z,100115.09
2023-01-29T08:01:51.552Z,100120.84
2023-01-29T08:04:21.977Z,100112.03
2023-01-29T08:06:50.371Z,100121.31
2023-01-29T08:09:18.848Z,100125.72
2023-01-29T08:11:47.086Z,100122.22
2023-01-29T08:14:15.339Z,100122.53
2023-01-29T08:16:43.755Z,100123.31
2023-01-29T08:19:13.102Z,100122.53
2023-01-29T08:21:45.746Z,100118.41
2023-01-29T08:24:14.027Z,100103.19
2023-01-29T08:26:42.362Z,100100.94
2023-01-29T08:29:10.706Z,100097.13
2023-01-29T08:31:39.114Z,100093.03
2023-01-29T08:34:07.471Z,100087.97
2023-01-29T08:36:36.414Z,100079.56
2023-01-29T08:39:06.108Z,100083.13
2023-01-29T08:41:34.454Z,100079.03
2023-01-29T08:44:04.696Z,100082.50
2023-01-29T08:46:33.457Z,100081.13
2023-01-29T08:49:05.067Z,100079.34
2023-01-29T08:51:34.111Z,100079.19
2023-01-29T08:54:02.370Z,100075.53
2023-01-29T08:56:34.079Z,100075.22
2023-01-29T08:59:05.042Z,100079.88
2023-01-29T09:01:36.234Z,100072.72
2023-01-29T09:04:04.515Z,100066.22
2023-01-29T09:06:32.863Z,100080.38
2023-01-29T09:09:01.318Z,100060.94
2023-01-29T09:11:29.760Z,100069.50
2023-01-29T09:14:01.153Z,100066.84
2023-01-29T09:16:31.578Z,100063.00
2023-01-29T09:19:02.695Z,100065.88
2023-01-29T09:21:34.757Z,100058.88
2023-01-29T09:24:03.069Z,100050.59
2023-01-29T09:26:31.416Z,100057.44
2023-01-29T09:29:01.099Z,100054.78
2023-01-29T09:31:29.548Z,100053.59
2023-01-29T09:33:57.874Z,100047.56
2023-01-29T09:36:26.481Z,100052.66
2023-01-29T09:38:54.837Z,100046.38
2023-01-29T09:41:35.279Z,100052.59
2023-01-29T09:44:08.322Z,100037.81
2023-01-29T09:46:42.479Z,100036.91
2023-01-29T09:49:20.111Z,100039.41
2023-01-29T09:51:51.866Z,100033.72
2023-01-29T09:54:25.108Z,100024.88
2023-01-29T09:56:56.969Z,100022.13
2023-01-29T09:59:28.704Z,100020.97
2023-01-29T10:02:07.471Z,100012.25
2023-01-29T10:05:26.487Z,100006.41
2023-01-29T10:08:22.016Z,99999.28
2023-01-29T10:10:51.517Z,99995.34
2023-01-29T10:13:30.573Z,100000.66
2023-01-29T10:16:12.320Z,100002.59
2023-01-29T10:18:55.457Z,99991.16
2023-01-29T10:21:37.846Z,99988.75
2023-01-29T10:24:14.793Z,99994.09
2023-01-29T10:26:43.211Z,99982.91
2023-01-29T10:29:18.844Z,99973.44
2023-01-29T10:31:52.538Z,99965.34
2023-01-29T10:34:26.647Z,99964.91
2023-01-29T10:36:56.511Z,99956.91
2023-01-29T10:39:26.692Z,99961.28
2023-01-29T10:42:03.414Z,99947.84
2023-01-29T10:44:46.100Z,99933.44
2023-01-29T10:47:30.376Z,99937.94
2023-01-29T10:50:11.983Z,99939.28
2023-01-29T10:52:47.504Z,99930.78
2023-01-29T10:55:27.738Z,99921.97
2023-01-29T10:58:04.129Z,99909.56
2023-01-29T11:00:36.403Z,99903.22
2023-01-29T11:03:27.122Z,99908.25
2023-01-29T11:06:11.788Z,99897.50
2023-01-29T11:08:44.274Z,99885.59
2023-01-29T11:11:15.998Z,99879.53
2023-01-29T11:13:47.164Z,99859.16
2023-01-29T11:16:15.740Z,99865.22
2023-01-29T11:18:57.991Z,99852.84
2023-01-29T11:21:29.071Z,99857.41
2023-01-29T11:24:17.110Z,99860.59
2023-01-29T11:26:50.428Z,99864.53
2023-01-29T11:29:33.876Z,99858.34
2023-01-29T11:32:03.850Z,99856.56
2023-01-29T11:34:36.294Z,99865.22
2023-01-29T11:37:16.527Z,99868.81
2023-01-29T11:39:47.408Z,99869.16
2023-01-29T11:42:21.223Z,99871.69
2023-01-29T11:44:49.569Z,99873.56
2023-01-29T11:47:20.867Z,99866.69
2023-01-29T11:49:52.238Z,99867.97
2023-01-29T11:52:22.300Z,99869.41
2023-01-29T11:54:53.494Z,99864.78
2023-01-29T11:57:29.682Z,99863.13
2023-01-29T12:00:01.862Z,99862.16
2023-01-29T12:02:36.253Z,99867.88
2023-01-29T12:05:14.743Z,99864.63
2023-01-29T12:07:43.818Z,99863.06
2023-01-29T12:10:45.079Z,99865.56
2023-01-29T12:13:27.947Z,99860.09
2023-01-29T12:16:15.941Z,99866.19
2023-01-29T12:18:50.080Z,99869.16
2023-01-29T12:21:25.829Z,99870.47
2023-01-29T12:24:00.807Z,99861.19
2023-01-29T12:26:33.039Z,99864.28
2023-01-29T12:29:35.633Z,99859.75
2023-01-29T12:32:13.770Z,99857.97
2023-01-29T12:34:46.834Z,99850.09
2023-01-29T12:37:23.752Z,99853.56
2023-01-29T12:39:53.278Z,99838.56
2023-01-29T12:42:23.378Z,99842.03
2023-01-29T12:44:54.992Z,99840.47
2023-01-29T12:47:27.651Z,99835.00
2023-01-29T12:49:58.545Z,99837.34
2023-01-29T12:52:38.486Z,99837.59
2023-01-29T12:55:13.789Z,99827.97
2023-01-29T12:57:45.254Z,99830.09
2023-01-29T13:00:19.186Z,99831.53
2023-01-29T13:02:51.375Z,99832.72
2023-01-29T13:05:24.559Z,99834.16
2023-01-29T13:07:59.882Z,99831.41
2023-01-29T13:10:36.701Z,99831.91
2023-01-29T13:13:13.419Z,99834.03
2023-01-29T13:15:44.225Z,99833.91
2023-01-29T13:18:32.411Z,99828.91
2023-01-29T13:21:01.921Z,99829.03
2023-01-29T13:23:35.409Z,99820.81
2023-01-29T13:26:03.995Z,99823.06
2023-01-29T13:28:32.672Z,99824.63
2023-01-29T13:31:16.803Z,99827.22
2023-01-29T13:33:45.590Z,99829.59
2023-01-29T13:36:19.494Z,99824.25
2023-01-29T13:38:57.240Z,99812.81
2023-01-29T13:41:36.522Z,99813.28
2023-01-29T13:44:07.537Z,99818.44
2023-01-29T13:46:40.049Z,99809.00
2023-01-29T13:49:25.546Z,99809.09
2023-01-29T13:51:54.008Z,99810.69
2023-01-29T13:54:27.204Z,99804.47
2023-01-29T13:57:00.735Z,99802.34
2023-01-29T13:59:47.125Z,99796.03
2023-01-29T14:02:25.681Z,99806.63
2023-01-29T14:05:33.935Z,99802.44
2023-01-29T14:08:03.142Z,99802.09
2023-01-29T14:10:33.907Z,99807.06
2023-01-29T14:13:34.754Z,99806.84
2023-01-29T14:16:30.325Z,99803.97
2023-01-29T14:19:00.838Z,99803.06
2023-01-29T14:21:32.117Z,99800.44
2023-01-29T14:24:09.622Z,99801.97
2023-01-29T14:26:45.879Z,99799.81
2023-01-29T14:29:33.841Z,99794.97
2023-01-29T14:32:16.026Z,99793.75
2023-01-29T14:34:47.856Z,99791.16
2023-01-29T14:37:32.459Z,99785.28
2023-01-29T14:40:22.380Z,99775.66
2023-01-29T14:43:01.930Z,99772.78
2023-01-29T14:45:31.413Z,99774.47
2023-01-29T14:48:22.067Z,99771.94
2023-01-29T14:50:53.366Z,99768.28
2023-01-29T14:53:25.575Z,99774.81
2023-01-29T14:56:00.631Z,99771.47
2023-01-29T14:58:39.284Z,99776.13
2023-01-29T15:01:13.840Z,99782.31
2023-01-29T15:03:45.622Z,99774.25
2023-01-29T15:06:19.723Z,99777.22
2023-01-29T15:08:55.381Z,99769.22
2023-01-29T15:11:38.281Z,99777.06
2023-01-29T15:14:24.217Z,99765.75
2023-01-29T15:17:04.069Z,99775.75
2023-01-29T15:19:37.151Z,99766.97
2023-01-29T15:22:10.939Z,99770.16
2023-01-29T15:24:40.591Z,99773.50
2023-01-29T15:27:13.961Z,99769.56
2023-01-29T15:29:43.913Z,99773.72
2023-01-29T15:32:20.498Z,99770.75
2023-01-29T15:34:49.914Z,99771.81
2023-01-29T15:37:30.248Z,99773.97
2023-01-29T15:39:58.923Z,99779.59
2023-01-29T15:42:30.551Z,99771.38
2023-01-29T15:45:00.324Z,99775.03
2023-01-29T15:47:32.489Z,99770.63
2023-01-29T15:50:01.880Z,99774.44
2023-01-29T15:52:36.526Z,99772.31
2023-01-29T15:55:06.946Z,99768.50
2023-01-29T15:57:40.665Z,99761.00
2023-01-29T16:00:23.109Z,99762.06
2023-01-29T16:02:51.648Z,99759.69
2023-01-29T16:05:22.761Z,99762.53
2023-01-29T16:07:52.221Z,99759.56
2023-01-29T16:10:22.533Z,99750.41
2023-01-29T16:12:52.645Z,99752.06
2023-01-29T16:15:32.373Z,99756.22
2023-01-29T16:18:01.650Z,99750.88
2023-01-29T16:20:36.651Z,99750.13
2023-01-29T16:23:05.412Z,99748.47
2023-01-29T16:25:35.597Z,99731.94
2023-01-29T16:28:06.867Z,99736.56
2023-01-29T16:30:36.945Z,99734.69
2023-01-29T16:33:06.625Z,99740.38
2023-01-29T16:35:35.142Z,99739.19
2023-01-29T16:38:07.970Z,99735.59
2023-01-29T16:40:38.057Z,99726.56
2023-01-29T16:43:49.111Z,99725.38
2023-01-29T16:46:26.672Z,99722.88
2023-01-29T16:48:55.577Z,99714.41
2023-01-29T16:51:27.463Z,99718.69
2023-01-29T16:54:11.078Z,99722.06
2023-01-29T16:56:41.403Z,99727.53
2023-01-29T16:59:18.199Z,99722.97
2023-01-29T17:01:49.524Z,99726.69
2023-01-29T17:04:20.168Z,99722.84
2023-01-29T17:06:50.607Z,99717.38
2023-01-29T17:09:25.962Z,99721.69
2023-01-29T17:11:59.344Z,99709.91
2023-01-29T17:14:27.803Z,99712.66
2023-01-29T17:17:04.032Z,99718.25
2023-01-29T17:19:32.939Z,99718.97
2023-01-29T17:22:05.705Z,99704.56
2023-01-29T17:24:34.433Z,99712.28
2023-01-29T17:27:03.234Z,99704.91
2023-01-29T17:29:32.867Z,99696.72
2023-01-29T17:32:02.721Z,99699.44
2023-01-29T17:34:31.427Z,99691.31
2023-01-29T17:37:00.107Z,99701.69
2023-01-29T17:39:29.809Z,99696.56
2023-01-29T17:42:01.497Z,99695.13
2023-01-29T17:44:30.184Z,99692.28
2023-01-29T17:47:02.751Z,99685.84
2023-01-29T17:49:34.146Z,99703.34
2023-01-29T17:52:04.532Z,99692.28
2023-01-29T17:54:33.071Z,99683.13
2023-01-29T17:57:01.802Z,99671.34
2023-01-29T17:59:34.014Z,99665.88
2023-01-29T18:02:04.033Z,99677.75
2023-01-29T18:04:32.516Z,99681.13
2023-01-29T18:07:00.957Z,99688.22
2023-01-29T18:09:31.799Z,99691.22
2023-01-29T18:12:03.667Z,99683.13
2023-01-29T18:14:32.624Z,99679.53
2023-01-29T18:17:01.387Z,99687.66
2023-01-29T18:19:32.276Z,99693.97
2023-01-29T18:22:01.109Z,99670.84
2023-01-29T18:24:31.667Z,99678.59
2023-01-29T18:27:00.237Z,99670.84
2023-01-29T18:29:30.508Z,99662.31
2023-01-29T18:31:59.107Z,99661.81
2023-01-29T18:34:27.834Z,99676.31
2023-01-29T18:37:01.124Z,99662.06
2023-01-29T18:39:29.335Z,99660.38
2023-01-29T18:42:00.922Z,99668.25
2023-01-29T18:44:29.971Z,99655.16
2023-01-29T18:46:58.359Z,99658.59
2023-01-29T18:49:26.878Z,99666.69
2023-01-29T18:51:55.678Z,99670.84
2023-01-29T18:54:25.612Z,99669.22
2023-01-29T18:57:13.264Z,99668.09
2023-01-29T18:59:43.108Z,99658.97
2023-01-29T19:02:15.295Z,99651.09
2023-01-29T19:04:44.095Z,99648.97
2023-01-29T19:07:13.818Z,99647.41
2023-01-29T19:09:45.889Z,99643.47
2023-01-29T19:12:17.101Z,99648.25
2023-01-29T19:14:46.047Z,99648.72
2023-01-29T19:17:14.732Z,99652.28
2023-01-29T19:19:43.327Z,99642.44
2023-01-29T19:22:11.997Z,99637.91
2023-01-29T19:24:41.192Z,99646.34
2023-01-29T19:27:11.796Z,99639.22
2023-01-29T19:29:40.645Z,99632.06
2023-01-29T19:32:13.097Z,99633.25
2023-01-29T19:34:41.587Z,99641.84
2023-01-29T19:37:16.022Z,99635.03
2023-01-29T19:39:44.637Z,99638.25
2023-01-29T19:42:14.464Z,99633.50
2023-01-29T19:44:45.590Z,99629.31
2023-01-29T19:47:14.109Z,99638.97
2023-01-29T19:49:44.956Z,99630.63
2023-01-29T19:52:49.742Z,99634.78
2023-01-29T19:55:19.700Z,99628.38
2023-01-29T19:57:49.977Z,99630.75
2023-01-29T20:00:19.800Z,99622.66
2023-01-29T20:02:48.230Z,99624.69
2023-01-29T20:05:18.697Z,99630.16
2023-01-29T20:07:47.611Z,99626.34
2023-01-29T20:10:18.266Z,99632.78
2023-01-29T20:12:47.718Z,99620.41
2023-01-29T20:15:18.387Z,99615.63
2023-01-29T20:17:46.982Z,99619.34
2023-01-29T20:20:16.979Z,99608.75
2023-01-29T20:22:46.386Z,99610.41
2023-01-29T20:25:14.942Z,99609.94
2023-01-29T20:27:43.763Z,99601.13
2023-01-29T20:30:13.169Z,99607.81
2023-01-29T20:32:42.965Z,99605.66
2023-01-29T20:35:11.551Z,99617.66
2023-01-29T20:37:39.774Z,99604.81
2023-01-29T20:40:09.007Z,99596.47
2023-01-29T20:42:37.364Z,99590.91
2023-01-29T20:45:06.430Z,99587.09
2023-01-29T20:47:35.364Z,99581.63
2023-01-29T20:50:08.715Z,99575.66
2023-01-29T20:52:36.834Z,99568.50
2023-01-29T20:55:06.007Z,99564.00
2023-01-29T20:57:34.477Z,99555.53
2023-01-29T21:00:02.808Z,99558.06
2023-01-29T21:02:33.599Z,99547.69
2023-01-29T21:05:02.237Z,99547.94
2023-01-29T21:07:33.502Z,99550.41
2023-01-29T21:10:03.401Z,99559.72
2023-01-29T21:12:32.134Z,99544.13
2023-01-29T21:15:00.434Z,99543.44
2023-01-29T21:17:28.767Z,99544.47
2023-01-29T21:19:57.356Z,99547.94
2023-01-29T21:22:25.654Z,99552.56
2023-01-29T21:24:55.360Z,99551.88
2023-01-29T21:27:23.630Z,99557.69
2023-01-29T21:29:51.964Z,99547.59
2023-01-29T21:32:20.403Z,99550.22
2023-01-29T21:34:49.398Z,99548.69
2023-01-29T21:37:18.864Z,99551.63
2023-01-29T21:39:47.197Z,99547.34
2023-01-29T21:42:34.177Z,99546.16
2023-01-29T21:45:02.630Z,99530.44
2023-01-29T21:47:33.123Z,99530.44
2023-01-29T21:50:02.508Z,99518.22
2023-01-29T21:52:30.994Z,99523.56
2023-01-29T21:54:59.360Z,99522.72
2023-01-29T21:57:29.105Z,99521.06
2023-01-29T21:59:57.860Z,99539.00
2023-01-29T22:02:27.703Z,99538.78
2023-01-29T22:05:08.711Z,99528.31
2023-01-29T22:07:45.738Z,99530.00
2023-01-29T22:10:14.604Z,99529.63
2023-01-29T22:12:45.034Z,99528.06
2023-01-29T22:15:14.174Z,99525.44
2023-01-29T22:17:42.843Z,99519.25
2023-01-29T22:20:13.882Z,99521.88
2023-01-29T22:22:42.289Z,99514.75
2023-01-29T22:25:11.751Z,99530.00
2023-01-29T22:27:41.509Z,99531.16
2023-01-29T22:30:13.088Z,99520.06
2023-01-29T22:32:42.053Z,99518.06
2023-01-29T22:35:11.285Z,99514.75
2023-01-29T22:37:39.623Z,99506.63
2023-01-29T22:40:09.114Z,99503.31
2023-01-29T22:42:37.395Z,99494.50
2023-01-29T22:45:06.276Z,99486.22
2023-01-29T22:47:35.953Z,99480.34
2023-01-29T22:50:04.556Z,99475.25
2023-01-29T22:52:38.673Z,99483.53
2023-01-29T22:55:09.663Z,99478.56
2023-01-29T22:57:38.055Z,99470.13
2023-01-29T23:00:09.885Z,99472.88
2023-01-29T23:02:42.498Z,99469.06
2023-01-29T23:05:11.171Z,99469.56
2023-01-29T23:07:39.522Z,99456.81
2023-01-29T23:10:08.971Z,99461.19
2023-01-29T23:12:37.343Z,99458.13
2023-01-29T23:15:06.176Z,99453.81
2023-01-29T23:17:34.604Z,99454.94
2023-01-29T23:20:04.440Z,99455.50
2023-01-29T23:22:32.831Z,99443.72
2023-01-29T23:25:02.934Z,99441.31
2023-01-29T23:27:31.098Z,99434.22
2023-01-29T23:29:59.383Z,99446.00
2023-01-29T23:32:27.779Z,99442.78
2023-01-29T23:34:56.116Z,99444.81
2023-01-29T23:37:25.792Z,99448.25
2023-01-29T23:39:54.107Z,99439.56
2023-01-29T23:42:22.579Z,99435.41
2023-01-29T23:44:50.869Z,99438.50
2023-01-29T23:47:19.137Z,99436.22
2023-01-29T23:49:47.610Z,99427.44
2023-01-29T23:52:15.892Z,99424.81
2023-01-29T23:54:45.542Z,99413.66
2023-01-29T23:57:14.847Z,99410.44
2023-01-29T23:59:43.116Z,99412.81
